createdAt,value
2022-12-03T00:01:31.670Z,59.40
2022-12-03T00:06:34.988Z,59.90
2022-12-03T00:11:37.846Z,60.70
2022-12-03T00:16:40.709Z,59.80
2022-12-03T00:21:43.599Z,63.70
2022-12-03T00:26:46.461Z,62.80
2022-12-03T00:31:49.335Z,62.70
2022-12-03T00:36:52.182Z,67.60
2022-12-03T00:41:55.029Z,62.00
2022-12-03T00:46:57.890Z,61.20
2022-12-03T00:52:00.835Z,59.80
2022-12-03T00:57:03.783Z,65.20
2022-12-03T01:02:08.301Z,61.80
2022-12-03T01:07:11.235Z,56.00
2022-12-03T01:12:14.086Z,64.10
2022-12-03T01:17:16.847Z,57.20
2022-12-03T01:22:19.672Z,63.40
2022-12-03T01:27:22.486Z,59.40
2022-12-03T01:32:25.324Z,56.90
2022-12-03T01:37:28.700Z,60.40
2022-12-03T01:42:34.116Z,61.10
2022-12-03T01:47:37.126Z,57.20
2022-12-03T01:52:39.937Z,53.30
2022-12-03T01:57:48.524Z,61.30
2022-12-03T02:07:59.875Z,52.70
2022-12-03T02:13:08.474Z,54.80
2022-12-03T02:18:11.316Z,51.40
2022-12-03T02:23:21.504Z,50.60
2022-12-03T02:28:24.242Z,53.80
2022-12-03T02:33:27.115Z,48.70
2022-12-03T02:38:30.388Z,50.80
2022-12-03T02:43:33.253Z,45.90
2022-12-03T02:48:37.283Z,42.20
2022-12-03T02:53:46.564Z,46.10
2022-12-03T02:58:50.494Z,43.20
2022-12-03T03:03:53.314Z,40.40
2022-12-03T03:08:56.281Z,38.40
2022-12-03T03:14:02.365Z,41.90
2022-12-03T03:19:05.241Z,40.00
2022-12-03T03:24:08.226Z,38.50
2022-12-03T03:29:11.107Z,40.50
2022-12-03T03:34:14.449Z,38.80
2022-12-03T03:39:17.702Z,41.10
2022-12-03T03:44:20.557Z,36.30
2022-12-03T03:49:23.377Z,39.10
2022-12-03T03:54:26.257Z,40.00
2022-12-03T03:59:29.224Z,41.70
2022-12-03T04:04:35.469Z,42.60
2022-12-03T04:09:38.277Z,40.00
2022-12-03T04:14:41.161Z,38.50
2022-12-03T04:19:44.285Z,39.00
2022-12-03T04:24:49.344Z,39.00
2022-12-03T04:29:52.199Z,38.70
2022-12-03T04:35:13.868Z,41.40
2022-12-03T04:40:35.483Z,40.30
2022-12-03T04:45:38.296Z,41.70
2022-12-03T04:50:41.110Z,37.60
2022-12-03T04:55:44.070Z,40.30
2022-12-03T05:00:47.495Z,42.70
2022-12-03T05:05:50.467Z,43.80
2022-12-03T05:10:53.566Z,46.10
2022-12-03T05:15:56.484Z,42.40
2022-12-03T05:20:59.655Z,41.30
2022-12-03T05:26:03.116Z,38.70
2022-12-03T05:31:06.843Z,45.40
2022-12-03T05:36:10.323Z,40.10
2022-12-03T05:41:31.793Z,37.90
2022-12-03T05:46:34.702Z,38.70
2022-12-03T05:51:37.791Z,39.70
2022-12-03T05:56:40.582Z,40.10
2022-12-03T06:01:43.501Z,38.20
2022-12-03T06:06:46.332Z,39.20
2022-12-03T06:11:53.579Z,39.60
2022-12-03T06:16:56.450Z,41.10
2022-12-03T06:22:00.902Z,33.60
2022-12-03T06:27:03.751Z,38.60
2022-12-03T06:32:06.785Z,34.10
2022-12-03T06:37:09.814Z,37.70
2022-12-03T06:42:13.941Z,34.40
2022-12-03T06:47:17.287Z,37.20
2022-12-03T06:52:20.202Z,36.00
2022-12-03T06:57:23.046Z,33.60
2022-12-03T07:02:26.055Z,33.10
2022-12-03T07:07:29.045Z,33.70
2022-12-03T07:12:32.794Z,36.40
2022-12-03T07:17:35.687Z,32.10
2022-12-03T07:22:38.525Z,35.40
2022-12-03T07:27:42.398Z,32.50
2022-12-03T07:32:45.236Z,34.30
2022-12-03T07:37:48.047Z,36.50
2022-12-03T07:42:51.023Z,35.40
2022-12-03T07:47:53.824Z,35.90
2022-12-03T07:52:59.183Z,32.80
2022-12-03T07:58:02.326Z,34.50
2022-12-03T08:03:05.175Z,35.80
2022-12-03T08:08:08.002Z,34.10
2022-12-03T08:13:15.129Z,31.50
2022-12-03T08:18:20.730Z,35.10
2022-12-03T08:23:25.276Z,36.70
2022-12-03T08:28:28.387Z,34.40
2022-12-03T08:33:36.169Z,31.50
2022-12-03T08:38:39.308Z,33.30
2022-12-03T08:43:43.983Z,34.30
2022-12-03T08:48:49.516Z,33.40
2022-12-03T09:00:59.877Z,32.80
2022-12-03T10:05:48.875Z,33.10
2022-12-03T10:10:56.601Z,32.90
2022-12-03T10:16:05.145Z,34.20
2022-12-03T10:21:59.743Z,35.00
2022-12-03T10:27:26.133Z,34.50
2022-12-03T10:32:46.844Z,31.60
2022-12-03T10:38:02.939Z,33.60
2022-12-03T10:43:22.029Z,36.90
2022-12-03T10:48:26.468Z,38.00
2022-12-03T10:53:32.203Z,33.40
2022-12-03T10:58:39.985Z,34.80
2022-12-03T11:03:42.846Z,36.10
2022-12-03T11:08:57.829Z,38.90
2022-12-03T11:14:05.516Z,36.50
2022-12-03T11:19:20.717Z,36.50
2022-12-03T11:24:23.468Z,38.20
2022-12-03T11:29:44.815Z,38.90
2022-12-03T11:34:47.705Z,36.10
2022-12-03T11:39:50.824Z,37.90
2022-12-03T11:45:04.585Z,40.20
2022-12-03T11:50:39.410Z,41.00
2022-12-03T11:55:49.742Z,41.10
2022-12-03T12:00:56.630Z,40.30
2022-12-03T12:06:07.060Z,40.90
2022-12-03T12:11:36.091Z,43.30
2022-12-03T12:48:31.715Z,44.70
2022-12-03T12:53:37.264Z,44.90
2022-12-03T13:06:26.962Z,47.10
2022-12-03T13:11:46.059Z,45.10
2022-12-03T13:17:54.805Z,42.80
2022-12-03T13:35:31.568Z,45.70
2022-12-03T13:40:37.668Z,51.70
2022-12-03T13:45:43.804Z,49.80
2022-12-03T13:50:47.021Z,46.10
2022-12-03T13:56:14.435Z,49.20
2022-12-03T14:01:17.401Z,47.10
2022-12-03T14:06:20.462Z,45.80
2022-12-03T14:11:42.547Z,48.20
2022-12-03T14:16:46.968Z,49.20
2022-12-03T14:21:50.083Z,51.30
2022-12-03T14:26:52.903Z,50.80
2022-12-03T14:31:56.230Z,50.00
2022-12-03T14:36:59.103Z,53.40
2022-12-03T14:42:14.148Z,51.00
2022-12-03T14:47:20.303Z,52.50
2022-12-03T14:52:23.158Z,50.00
2022-12-03T14:57:26.259Z,50.80
2022-12-03T15:02:30.341Z,55.00
2022-12-03T15:07:34.675Z,56.50
2022-12-03T15:12:37.575Z,50.30
2022-12-03T15:17:40.401Z,59.20
2022-12-03T15:22:43.300Z,59.60
2022-12-03T15:27:46.098Z,58.00
2022-12-03T15:32:49.535Z,53.70
2022-12-03T15:37:52.599Z,57.60
2022-12-03T15:42:55.408Z,61.90
2022-12-03T15:47:59.745Z,58.70
2022-12-03T15:53:04.030Z,58.80
2022-12-03T15:58:08.556Z,57.20
2022-12-03T16:03:11.393Z,59.50
2022-12-03T16:08:14.688Z,56.80
2022-12-03T16:13:17.734Z,61.60
2022-12-03T16:18:20.643Z,65.80
2022-12-03T16:23:23.501Z,64.60
2022-12-03T16:28:27.036Z,67.30
2022-12-03T16:33:32.308Z,61.20
2022-12-03T16:38:35.449Z,66.60
2022-12-03T16:43:39.040Z,67.70
2022-12-03T16:48:41.933Z,63.00
2022-12-03T16:53:45.300Z,63.80
2022-12-03T16:58:49.875Z,76.90
2022-12-03T17:03:53.100Z,74.50
2022-12-03T17:08:55.873Z,74.90
2022-12-03T17:13:58.859Z,79.10
2022-12-03T17:19:03.021Z,85.90
2022-12-03T17:24:07.545Z,86.00
2022-12-03T17:29:10.947Z,79.90
2022-12-03T17:34:14.833Z,76.90
2022-12-03T17:39:17.749Z,92.60
2022-12-03T17:44:21.500Z,85.80
2022-12-03T17:49:31.166Z,85.70
2022-12-03T17:55:01.842Z,81.50
2022-12-03T17:59:59.123Z,85.20
2022-12-03T18:05:02.518Z,91.60
2022-12-03T18:10:06.404Z,82.20
2022-12-03T18:15:09.851Z,86.00
2022-12-03T18:20:12.884Z,87.60
2022-12-03T18:25:18.090Z,95.20
2022-12-03T18:30:21.288Z,88.20
2022-12-03T18:35:24.681Z,81.70
2022-12-03T18:40:27.567Z,86.60
2022-12-03T18:45:30.529Z,93.20
2022-12-03T18:50:35.567Z,87.50
2022-12-03T18:55:38.603Z,87.20
2022-12-03T19:00:42.594Z,86.90
2022-12-03T19:05:45.615Z,87.40
2022-12-03T19:10:59.799Z,90.90
2022-12-03T19:16:06.636Z,90.20
2022-12-03T19:21:14.126Z,83.30
2022-12-03T19:26:17.650Z,91.00
2022-12-03T19:31:20.796Z,85.50
2022-12-03T19:36:27.586Z,87.70
2022-12-03T19:41:33.280Z,91.60
2022-12-03T19:46:36.167Z,88.00
2022-12-03T19:51:39.102Z,90.90
2022-12-03T19:56:42.105Z,83.50
2022-12-03T20:01:45.156Z,88.10
2022-12-03T20:06:48.569Z,85.90
2022-12-03T20:11:53.908Z,87.60
2022-12-03T20:16:56.890Z,78.40
2022-12-03T20:22:02.760Z,80.50
2022-12-03T20:27:06.234Z,79.40
2022-12-03T20:32:09.743Z,73.30
2022-12-03T20:37:12.636Z,78.20
2022-12-03T20:42:15.719Z,75.40
2022-12-03T20:47:19.506Z,85.70
2022-12-03T20:52:22.688Z,83.00
2022-12-03T20:57:26.323Z,79.00
2022-12-03T21:02:29.207Z,79.70
2022-12-03T21:07:32.989Z,80.10
2022-12-03T21:12:36.137Z,84.80
2022-12-03T21:17:39.177Z,79.70
2022-12-03T21:22:42.547Z,79.20
2022-12-03T21:27:45.370Z,86.20
2022-12-03T21:32:48.434Z,84.50
2022-12-03T21:37:51.964Z,80.50
2022-12-03T21:42:54.810Z,85.80
2022-12-03T21:47:57.812Z,81.00
2022-12-03T21:53:00.767Z,72.80
2022-12-03T21:58:03.737Z,69.80
2022-12-03T22:03:07.886Z,72.70
2022-12-03T22:08:16.455Z,71.30
2022-12-03T22:13:19.436Z,73.50
2022-12-03T22:18:23.434Z,71.60
2022-12-03T22:23:27.752Z,70.70
2022-12-03T22:28:31.781Z,70.90
2022-12-03T22:33:35.285Z,69.60
2022-12-03T22:38:38.116Z,78.30
2022-12-03T22:43:41.405Z,74.10
2022-12-03T22:48:46.159Z,71.80
2022-12-03T22:53:57.144Z,72.60
2022-12-03T22:59:01.696Z,78.40
2022-12-03T23:04:06.376Z,73.30
2022-12-03T23:09:09.335Z,74.90
2022-12-03T23:14:12.969Z,65.40
2022-12-03T23:19:21.025Z,62.30
2022-12-03T23:24:23.883Z,75.20
2022-12-03T23:29:27.191Z,62.70
2022-12-03T23:34:30.199Z,67.60
2022-12-03T23:39:33.206Z,62.90
2022-12-03T23:44:37.198Z,70.00
2022-12-03T23:49:39.983Z,65.90
2022-12-03T23:54:42.828Z,63.10
2022-12-03T23:59:45.581Z,61.60
